KFLG/FLG METAR and TAF weather

Enter ICAO airport designator
Station Type Date Time Source
KFLG METAR 2020/03/31 11:57 UTC NOAA

KFLG 311157Z AUTO 00000KT 10SM CLR M04/M07 A3022 RMK AO2 SLP199 T10391072 10000 21039 56012


Station Type Date Time Source
KFLG Decoded METAR 2020/03/31 11:57 UTC NOAA

FLAGSTAFF PULLIAM AIRPORT, AZ, United States (KFLG) 35-08N 111-40W 2134M
Mar 31, 2020 - 07:57 AM EDT / 2020.03.31 1157 UTC
Wind: Calm:0
Visibility: 10 mile(s):0
Sky conditions: clear
Temperature: 25.0 F (-3.9 C)
Dew Point: 19.0 F (-7.2 C)
Relative Humidity: 77%
Pressure (altimeter): 30.22 in. Hg (1023 hPa)
Pressure tendency: 0.04 inches (1.2 hPa) lower than three hours ago
ob: KFLG 311157Z AUTO 00000KT 10SM CLR M04/M07 A3022 RMK AO2 SLP199 T10391072 10000 21039 56012
cycle: 12

Station Type Date Time Source
KFLG TAF 2020/03/31 12:27 UTC NOAA

TAF KFLG 311124Z 3112/0112 22005KT P6SM SCT250
FM311800 21009KT P6SM BKN250
FM010130 VRB04KT P6SM SCT250

Example: see airport list